Flight Track Log - Related Links

Times and Time Zones

All times are in EST time to prevent confusion due to time zone crossing. See the N9029X flight status page for this flight to view local times or setup timezone preferences in your user account.

Time Position Orientation Groundspeed Altitude Reporting Facility
EST Latitude Longitude Course Direction KTS MPH feet Rate Location/Type
Wed 12:14:18 PM 33.9333 -118.0000 59° Northeast 106 122 4,200  Level Southern California TRACON
Wed 12:15:12 PM 33.9500 -117.9667 59° Northeast 105 121 4,900 737 Climbing Southern California TRACON
Wed 12:16:12 PM 33.9500 -117.9333 90° East 105 121 5,600 684 Climbing Southern California TRACON
Wed 12:17:06 PM 33.9500 -117.9000 90° East 102 117 6,200 684 Climbing Southern California TRACON
Wed 12:18:06 PM 33.9500 -117.8833 90° East 101 116 6,900 600 Climbing Southern California TRACON
Wed 12:19:06 PM 33.9667 -117.8333 68° East 103 119 7,400 250 Climbing Southern California TRACON
Wed 12:20:06 PM 33.9833 -117.8000 59° Northeast 133 153 7,400  Level Southern California TRACON
Wed 12:21:06 PM 34.0000 -117.7667 59° Northeast 129 148 7,400 50 Level Southern California TRACON
Wed 12:22:06 PM 34.0167 -117.7333 59° Northeast 131 151 7,500 53 Climbing Southern California TRACON
Wed 12:23:00 PM 34.0333 -117.7000 59° Northeast 131 151 7,500  Level Southern California TRACON
Wed 12:24:06 PM 34.0667 -117.6667 40° Northeast 132 152 7,500  Level Southern California TRACON
Wed 12:25:01 PM 34.0833 -117.6333 59° Northeast 145 167 7,500 209 Level Southern California TRACON
Wed 12:26:01 PM 34.1000 -117.6000 59° Northeast 130 150 7,900 450 Climbing Southern California TRACON
Wed 12:27:01 PM 34.1167 -117.5667 59° Northeast 108 124 8,400 500 Climbing Southern California TRACON
Wed 12:27:37 PM 34.1358 -117.5522 32° Northeast 108 124 8,700 490 Climbing Los Angeles Center
Wed 12:28:39 PM 34.1581 -117.5244 46° Northeast 114 131 9,200 387 Climbing Los Angeles Center
Wed 12:29:41 PM 34.1825 -117.4964 44° Northeast 121 139 9,500 194 Climbing Los Angeles Center
Wed 12:30:43 PM 34.2061 -117.4633 49° Northeast 131 151 9,600 97 Climbing Los Angeles Center
Wed 12:31:45 PM 34.2314 -117.4289 48° Northeast 137 158 9,700 97 Climbing Los Angeles Center
Wed 12:32:47 PM 34.2581 -117.3986 43° Northeast 134 154 9,800 48 Climbing Los Angeles Center
Wed 12:33:49 PM 34.2894 -117.3569 48° Northeast 141 162 9,800 -97 Level Los Angeles Center
Wed 12:34:51 PM 34.3147 -117.3200 50° Northeast 143 165 9,600 -48 Descending Los Angeles Center
Wed 12:35:53 PM 34.3386 -117.2842 51° Northeast 139 160 9,700  Climbing Los Angeles Center
Wed 12:36:56 PM 34.3636 -117.2472 51° Northeast 142 163 9,600 -44 Descending Los Angeles Center
Wed 12:38:10 PM 34.3894 -117.2083 51° Northeast 143 165 9,600  Level Los Angeles Center
Wed 12:39:12 PM 34.4225 -117.1656 47° Northeast 146 168 9,600 -48 Level Los Angeles Center
Wed 12:40:14 PM 34.4489 -117.1286 49° Northeast 145 167 9,500 -48 Descending Los Angeles Center
Wed 12:41:16 PM 34.4786 -117.0858 50° Northeast 142 163 9,500 48 Level Los Angeles Center
Wed 12:42:19 PM 34.5033 -117.0500 50° Northeast 140 161 9,600 144 Climbing Los Angeles Center
Wed 12:43:21 PM 34.5278 -117.0144 50° Northeast 139 160 9,800 194 Climbing Los Angeles Center
Wed 12:44:23 PM 34.5531 -116.9836 45° Northeast 135 155 10,000 194 Climbing Los Angeles Center
Wed 12:45:25 PM 34.5794 -116.9533 43° Northeast 133 153 10,200 242 Climbing Los Angeles Center
Wed 12:46:27 PM 34.6106 -116.9133 47° Northeast 134 154 10,500 290 Climbing Los Angeles Center
Wed 12:47:29 PM 34.6361 -116.8822 45° Northeast 133 153 10,800 290 Climbing Los Angeles Center
Wed 12:48:31 PM 34.6600 -116.8517 46° Northeast 130 150 11,100 290 Climbing Los Angeles Center
Wed 12:49:33 PM 34.6836 -116.8200 48° Northeast 128 147 11,400 242 Climbing Los Angeles Center
Wed 12:50:35 PM 34.7069 -116.7875 49° Northeast 128 147 11,600 96 Climbing Los Angeles Center
Wed 12:51:38 PM 34.7336 -116.7561 44° Northeast 129 148 11,600  Level Los Angeles Center
Wed 12:52:40 PM 34.7708 -116.7200 39° Northeast 138 159 11,600  Level Los Angeles Center
Wed 12:53:42 PM 34.7992 -116.6886 42° Northeast 139 160 11,600  Level Los Angeles Center
Wed 12:54:44 PM 34.8278 -116.6597 40° Northeast 137 158 11,600  Level Los Angeles Center
Wed 12:55:46 PM 34.8569 -116.6322 38° Northeast 134 154 11,600 -48 Level Los Angeles Center
Wed 12:56:48 PM 34.8892 -116.6075 32° Northeast 134 154 11,500  Descending Los Angeles Center
Wed 12:57:50 PM 34.9275 -116.5764 34° Northeast 136 157 11,600 97 Climbing Los Angeles Center
Wed 12:58:52 PM 34.9519 -116.5558 35° Northeast 136 157 11,700  Climbing Los Angeles Center
Wed 01:00:07 PM 34.9950 -116.5183 36° Northeast 136 157 11,600 -88 Descending Los Angeles Center
Wed 01:01:09 PM 35.0253 -116.4889 39° Northeast 137 158 11,500 -48 Descending Los Angeles Center
Wed 01:02:11 PM 35.0569 -116.4614 35° Northeast 139 160 11,500  Level Los Angeles Center
Wed 01:03:13 PM 35.0936 -116.4250 39° Northeast 141 162 11,500  Level Los Angeles Center
Wed 01:04:15 PM 35.1153 -116.3989 45° Northeast 140 161 11,500 97 Level Los Angeles Center
Wed 01:05:17 PM 35.1447 -116.3592 48° Northeast 137 158 11,700 96 Climbing Los Angeles Center
Wed 01:06:20 PM 35.1653 -116.3256 53° Northeast 132 152 11,700 -48 Level Los Angeles Center
Wed 01:07:22 PM 35.1856 -116.2867 57° Northeast 133 153 11,600 -97 Descending Los Angeles Center
Wed 01:08:24 PM 35.2075 -116.2475 56° Northeast 136 157 11,500 -97 Descending Los Angeles Center
Wed 01:09:26 PM 35.2286 -116.1975 63° Northeast 139 160 11,400  Descending Los Angeles Center
Wed 01:10:28 PM 35.2450 -116.1550 65° Northeast 139 160 11,500 48 Climbing Los Angeles Center
Wed 01:11:30 PM 35.2617 -116.1167 62° Northeast 134 154 11,500 48 Level Los Angeles Center
Wed 01:12:32 PM 35.2800 -116.0792 59° Northeast 131 151 11,600 48 Climbing Los Angeles Center
Wed 01:13:34 PM 35.3022 -116.0447 52° Northeast 128 147 11,600 48 Level Los Angeles Center
Wed 01:14:36 PM 35.3317 -116.0131 41° Northeast 131 151 11,700  Climbing Los Angeles Center
Wed 01:15:39 PM 35.3675 -115.9747 41° Northeast 136 157 11,600 -48 Descending Los Angeles Center
Wed 01:16:41 PM 35.3972 -115.9436 40° Northeast 139 160 11,600 -48 Level Los Angeles Center
Wed 01:17:43 PM 35.4253 -115.9103 44° Northeast 140 161 11,500  Descending Los Angeles Center
Wed 01:18:45 PM 35.4522 -115.8761 46° Northeast 141 162 11,600 48 Climbing Los Angeles Center
Wed 01:19:47 PM 35.4797 -115.8447 43° Northeast 139 160 11,600  Level Los Angeles Center
Wed 01:20:49 PM 35.5122 -115.8061 44° Northeast 137 158 11,600  Level Los Angeles Center
Wed 01:21:51 PM 35.5386 -115.7769 42° Northeast 136 157 11,600  Level Los Angeles Center
Wed 01:21:58 PM 35.5442 -115.7753 14° North 133 153 11,600  Level Los Angeles Center
Wed 01:22:53 PM 35.5664 -115.7481 45° Northeast 133 153 11,600 -82 Level Los Angeles Center
Wed 01:23:11 PM 35.5800 -115.7400 26° Northeast 136 157 11,500  Descending Los Angeles Center
Wed 01:23:56 PM 35.5961 -115.7186 47° Northeast 135 155 11,600 109 Climbing Los Angeles Center
Wed 01:24:06 PM 35.6031 -115.7169 11° North 137 158 11,600  Level Los Angeles Center
Wed 01:24:58 PM 35.6292 -115.6806 49° Northeast 135 155 11,600 -98 Level Los Angeles Center
Wed 01:25:07 PM 35.6339 -115.6806 360° North 136 157 11,500 -97 Descending Los Angeles Center
Wed 01:26:00 PM 35.6544 -115.6464 53° Northeast 134 154 11,500  Level Los Angeles Center
Wed 01:26:02 PM 35.6556 -115.6497 292° West 135 155 11,500  Level Los Angeles Center
Wed 01:27:02 PM 35.6772 -115.6097 56° Northeast 134 154 11,500  Level Los Angeles Center
Wed 01:27:08 PM 35.6819 -115.6122 337° Northwest 142 163 11,500  Level Los Angeles Center
Wed 01:28:04 PM 35.7047 -115.5806 48° Northeast 131 151 11,500  Level Los Angeles Center
Wed 01:28:09 PM 35.7108 -115.5764 29° Northeast 133 153 11,500 91 Level Los Angeles Center
Wed 01:29:10 PM 35.7375 -115.5494 39° Northeast 131 151 11,600 52 Climbing Los Angeles Center
Wed 01:30:05 PM 35.7639 -115.5222 40° Northeast 130 150 11,600  Level Los Angeles Center
Wed 01:30:09 PM 35.7639 -115.5197 90° East 130 150 11,600  Level Los Angeles Center
Wed 01:31:05 PM 35.7900 -115.4925 40° Northeast 131 151 11,600  Level Los Angeles Center
Wed 01:31:10 PM 35.7933 -115.4883 45° Northeast 130 150 11,600  Level Los Angeles Center
Wed 01:32:12 PM 35.8222 -115.4603 38° Northeast 133 153 11,600  Level Los Angeles Center
Wed 01:32:19 PM 35.8256 -115.4572 37° Northeast 134 154 11,600  Level Los Angeles Center
Wed 01:33:15 PM 35.8547 -115.4292 38° Northeast 137 158 11,600  Level Los Angeles Center
Wed 01:33:26 PM 35.8603 -115.4275 14° North 137 158 11,600  Level Los Angeles Center
Wed 01:34:17 PM 35.8833 -115.3983 46° Northeast 137 158 11,600  Level Los Angeles Center
Wed 01:34:27 PM 35.8850 -115.3928 70° East 141 162 11,600  Level Los Angeles Center
Wed 01:35:19 PM 35.9106 -115.3606 46° Northeast 137 158 11,600  Level Los Angeles Center
Wed 01:36:21 PM 35.9353 -115.3258 49° Northeast 135 155 11,600  Level Los Angeles Center
Wed 01:36:28 PM 35.9389 -115.3222 39° Northeast 134 154 11,600  Level Los Angeles Center
Wed 01:37:17 PM 35.9567 -115.2950 51° Northeast 134 154 11,600  Level Los Angeles Center
Wed 01:37:23 PM 35.9597 -115.2875 63° Northeast 134 154 11,600 -98 Level Los Angeles Center
Wed 01:38:18 PM 35.9792 -115.2586 50° Northeast 133 153 11,500 -97 Descending Los Angeles Center
Wed 01:38:25 PM 35.9833 -115.2525 50° Northeast 133 153 11,500  Level Los Angeles Center
Wed 01:39:18 PM 36.0058 -115.2231 47° Northeast 133 153 11,500  Level Los Angeles Center
Wed 01:39:27 PM 36.0083 -115.2197 47° Northeast 132 152 11,500  Level Los Angeles Center
Wed 01:40:25 PM 36.0353 -115.1897 42° Northeast 134 154 11,500  Level Los Angeles Center
Wed 01:40:29 PM 36.0372 -115.1847 64° Northeast 134 154 11,500  Level Los Angeles Center
Wed 01:41:26 PM 36.0589 -115.1581 45° Northeast 130 150 11,500  Level Los Angeles Center
Wed 01:41:31 PM 36.0594 -115.1564 68° East 131 151 11,500  Level Los Angeles Center
Wed 01:42:27 PM 36.0875 -115.1219 45° Northeast 136 157 11,500  Level Los Angeles Center
Wed 01:42:34 PM 36.0892 -115.1186 58° Northeast 130 150 11,500  Level Los Angeles Center
Wed 01:43:22 PM 36.1119 -115.0950 40° Northeast 133 153 11,500  Level Los Angeles Center
Wed 01:43:36 PM 36.1178 -115.0878 45° Northeast 130 150 11,500 98 Level Los Angeles Center
Wed 01:44:23 PM 36.1400 -115.0644 40° Northeast 129 148 11,600 97 Climbing Los Angeles Center
Wed 01:44:38 PM 36.1450 -115.0592 40° Northeast 129 148 11,600  Level Los Angeles Center
Wed 01:45:29 PM 36.1694 -115.0308 43° Northeast 129 148 11,600  Level Los Angeles Center
Wed 01:45:40 PM 36.1731 -115.0261 47° Northeast 129 148 11,600 82 Level Los Angeles Center
Wed 01:46:42 PM 36.2000 -114.9950 43° Northeast 132 152 11,700 61 Climbing Los Angeles Center
Wed 01:47:19 PM 36.2186 -114.9797 34° Northeast 134 154 11,700  Level Los Angeles Center
Wed 01:47:44 PM 36.2325 -114.9675 35° Northeast 132 152 11,700  Level Los Angeles Center
Wed 01:48:46 PM 36.2636 -114.9406 35° Northeast 135 155 11,700  Level Los Angeles Center
Wed 01:49:48 PM 36.2942 -114.9147 34° Northeast 133 153 11,700 -48 Level Los Angeles Center
Wed 01:50:50 PM 36.3264 -114.8883 33° Northeast 136 157 11,600 -48 Descending Los Angeles Center
Wed 01:51:52 PM 36.3578 -114.8617 34° Northeast 137 158 11,600  Level Los Angeles Center
Wed 01:52:55 PM 36.3894 -114.8347 34° Northeast 138 159 11,600  Level Los Angeles Center
Wed 01:53:57 PM 36.4264 -114.8028 35° Northeast 136 157 11,600  Level Los Angeles Center
Wed 01:54:59 PM 36.4572 -114.7778 33° Northeast 134 154 11,600  Level Los Angeles Center
Wed 01:56:01 PM 36.4883 -114.7506 35° Northeast 136 157 11,600  Level Los Angeles Center
Wed 01:57:03 PM 36.5181 -114.7231 37° Northeast 135 155 11,600  Level Los Angeles Center
Wed 01:58:05 PM 36.5497 -114.6911 39° Northeast 135 155 11,600  Level Los Angeles Center
Wed 01:59:07 PM 36.5819 -114.6636 34° Northeast 133 153 11,600 -48 Level Los Angeles Center
Wed 02:00:09 PM 36.6139 -114.6378 33° Northeast 138 159 11,500 -48 Descending Los Angeles Center
Wed 02:01:11 PM 36.6483 -114.6119 31° Northeast 136 157 11,500  Level Los Angeles Center
Wed 02:02:13 PM 36.6783 -114.5850 36° Northeast 133 153 11,500  Level Los Angeles Center
Wed 02:03:16 PM 36.7103 -114.5581 34° Northeast 129 148 11,500  Level Los Angeles Center
Wed 02:04:18 PM 36.7356 -114.5328 39° Northeast 130 150 11,500  Level Los Angeles Center
Wed 02:05:20 PM 36.7669 -114.5083 32° Northeast 132 152 11,500 -48 Level Los Angeles Center
Wed 02:06:22 PM 36.8044 -114.4794 32° Northeast 132 152 11,400 -97 Descending Los Angeles Center
Wed 02:07:24 PM 36.8353 -114.4536 34° Northeast 133 153 11,300 97 Descending Los Angeles Center
Wed 02:08:26 PM 36.8656 -114.4306 31° Northeast 129 148 11,600 194 Climbing Los Angeles Center
Wed 02:09:28 PM 36.8956 -114.4075 32° Northeast 127 146 11,700 48 Climbing Los Angeles Center
Wed 02:10:30 PM 36.9272 -114.3817 33° Northeast 133 153 11,700  Level Los Angeles Center
Wed 02:11:32 PM 36.9597 -114.3592 29° Northeast 133 153 11,700  Level Los Angeles Center
Wed 02:12:34 PM 36.9972 -114.3303 32° Northeast 133 153 11,700 -48 Level Los Angeles Center
Wed 02:13:36 PM 37.0269 -114.3031 36° Northeast 133 153 11,600 -96 Descending Los Angeles Center
Wed 02:15:41 PM 37.0878 -114.2508 34° Northeast 132 152 11,400 -96 Descending Los Angeles Center
Wed 02:16:43 PM 37.1203 -114.2258 32° Northeast 135 155 11,300 97 Descending Los Angeles Center
Wed 02:17:45 PM 37.1550 -114.1994 31° Northeast 125 144 11,600 194 Climbing Los Angeles Center
Wed 02:18:47 PM 37.1844 -114.1783 30° Northeast 122 140 11,700 48 Climbing Los Angeles Center
Wed 02:19:50 PM 37.2128 -114.1503 38° Northeast 127 146 11,700 -48 Level Los Angeles Center
Wed 02:20:51 PM 37.2447 -114.1236 34° Northeast 135 155 11,600 -98 Descending Los Angeles Center
Wed 02:21:53 PM 37.2772 -114.0992 31° Northeast 135 155 11,500 -48 Descending Los Angeles Center
Wed 02:22:55 PM 37.3078 -114.0731 34° Northeast 134 154 11,500  Level Los Angeles Center
Wed 02:23:58 PM 37.3406 -114.0447 34° Northeast 133 153 11,500  Level Los Angeles Center
Wed 02:25:11 PM 37.3717 -114.0197 33° Northeast 133 153 11,500 -44 Level Los Angeles Center
Wed 02:26:14 PM 37.4100 -113.9939 28° Northeast 131 151 11,400 -48 Descending Los Angeles Center
Wed 02:27:16 PM 37.4458 -113.9656 32° Northeast 129 148 11,400 48 Level Los Angeles Center
Wed 02:28:18 PM 37.4756 -113.9400 34° Northeast 129 148 11,500 97 Climbing Los Angeles Center
Wed 02:29:20 PM 37.5058 -113.9153 33° Northeast 129 148 11,600 48 Climbing Los Angeles Center
Wed 02:30:23 PM 37.5375 -113.8917 31° Northeast 130 150 11,600 96 Level Los Angeles Center
Wed 02:31:25 PM 37.5714 -113.8697 27° Northeast 132 152 11,800 70 Climbing Los Angeles Center
Wed 02:31:49 PM 37.5850 -113.8597 30° Northeast 134 154 11,700 -207 Descending Los Angeles Center
Wed 02:32:52 PM 37.6231 -113.8250 36° Northeast 138 159 11,500 -118 Descending Los Angeles Center
Wed 02:33:31 PM 37.6431 -113.8078 34° Northeast 140 161 11,500  Level Salt Lake Center
Wed 02:34:33 PM 37.6736 -113.7786 37° Northeast 141 162 11,500  Level Salt Lake Center
Wed 02:35:35 PM 37.7036 -113.7508 36° Northeast 138 159 11,500  Level Salt Lake Center
Wed 02:36:37 PM 37.7344 -113.7244 34° Northeast 136 157 11,500  Level Salt Lake Center
Wed 02:37:39 PM 37.7744 -113.6986 27° Northeast 134 154 11,500 -48 Level Salt Lake Center
Wed 02:38:41 PM 37.8078 -113.6764 28° Northeast 134 154 11,400 -60 Descending Salt Lake Center
Wed 02:39:19 PM 37.8269 -113.6619 31° Northeast 134 154 11,400 60 Level Salt Lake Center
Wed 02:40:21 PM 37.8575 -113.6353 35° Northeast 134 154 11,500 97 Climbing Salt Lake Center
Wed 02:41:23 PM 37.8875 -113.6094 34° Northeast 133 153 11,600 48 Climbing Salt Lake Center
Wed 02:42:25 PM 37.9189 -113.5844 32° Northeast 132 152 11,600  Level Salt Lake Center
Wed 02:43:27 PM 37.9522 -113.5597 30° Northeast 134 154 11,600  Level Salt Lake Center
Wed 02:44:29 PM 37.9883 -113.5233 38° Northeast 137 158 11,600  Level Salt Lake Center
Wed 02:45:31 PM 38.0192 -113.4964 35° Northeast 136 157 11,600  Level Salt Lake Center
Wed 02:46:32 PM 38.0514 -113.4711 32° Northeast 136 157 11,600 49 Level Salt Lake Center
Wed 02:47:34 PM 38.0833 -113.4467 31° Northeast 135 155 11,700 48 Climbing Salt Lake Center
Wed 02:48:36 PM 38.1161 -113.4236 29° Northeast 135 155 11,700  Level Salt Lake Center
Wed 02:49:38 PM 38.1486 -113.3994 30° Northeast 135 155 11,700 -48 Level Salt Lake Center
Wed 02:50:40 PM 38.1792 -113.3703 37° Northeast 135 155 11,600 -48 Descending Salt Lake Center
Wed 02:51:42 PM 38.2150 -113.3339 39° Northeast 136 157 11,600 48 Level Salt Lake Center
Wed 02:52:44 PM 38.2461 -113.3064 35° Northeast 136 157 11,700 48 Climbing Salt Lake Center
Wed 02:53:46 PM 38.2778 -113.2814 32° Northeast 136 157 11,700 -48 Level Salt Lake Center
Wed 02:54:48 PM 38.3106 -113.2536 34° Northeast 138 159 11,600 -98 Descending Salt Lake Center
Wed 02:55:49 PM 38.3411 -113.2236 38° Northeast 138 159 11,500 -49 Descending Salt Lake Center
Wed 02:56:51 PM 38.3708 -113.1922 40° Northeast 139 160 11,500  Level Salt Lake Center
Wed 02:57:53 PM 38.3997 -113.1606 41° Northeast 137 158 11,500  Level Salt Lake Center
Wed 02:58:55 PM 38.4317 -113.1206 44° Northeast 136 157 11,500  Level Salt Lake Center
Wed 02:59:57 PM 38.4647 -113.0950 31° Northeast 137 158 11,500  Level Salt Lake Center
Wed 03:00:59 PM 38.5017 -113.0808 17° North 138 159 11,500 48 Level Salt Lake Center
Wed 03:02:01 PM 38.5378 -113.0667 17° North 138 159 11,600 49 Climbing Salt Lake Center
Wed 03:03:02 PM 38.5700 -113.0419 31° Northeast 135 155 11,600  Level Salt Lake Center
Wed 03:04:04 PM 38.5989 -113.0094 41° Northeast 134 154 11,600 48 Level Salt Lake Center
Wed 03:05:06 PM 38.6372 -112.9744 35° Northeast 138 159 11,700  Climbing Salt Lake Center
Wed 03:06:08 PM 38.6686 -112.9461 35° Northeast 139 160 11,600 -48 Descending Salt Lake Center
Wed 03:07:10 PM 38.7011 -112.9175 34° Northeast 140 161 11,600 -48 Level Salt Lake Center
Wed 03:08:12 PM 38.7333 -112.8889 35° Northeast 141 162 11,500 -98 Descending Salt Lake Center
Wed 03:09:13 PM 38.7667 -112.8622 32° Northeast 141 162 11,400  Descending Salt Lake Center
Wed 03:10:15 PM 38.8003 -112.8367 31° Northeast 142 163 11,500 48 Climbing Salt Lake Center
Wed 03:11:17 PM 38.8342 -112.8125 29° Northeast 141 162 11,500 48 Level Salt Lake Center
Wed 03:12:20 PM 38.8719 -112.7803 34° Northeast 138 159 11,600 97 Climbing Salt Lake Center
Wed 03:13:21 PM 38.9036 -112.7517 35° Northeast 138 159 11,700 98 Climbing Salt Lake Center
Wed 03:14:23 PM 38.9353 -112.7236 35° Northeast 138 159 11,800  Climbing Salt Lake Center
Wed 03:15:25 PM 38.9669 -112.6942 36° Northeast 139 160 11,700 -145 Descending Salt Lake Center
Wed 03:16:27 PM 39.0011 -112.6647 34° Northeast 142 163 11,500 -97 Descending Salt Lake Center
Wed 03:17:29 PM 39.0356 -112.6372 32° Northeast 146 168 11,500 -49 Level Salt Lake Center
Wed 03:18:30 PM 39.0756 -112.6064 31° Northeast 143 165 11,400 -49 Descending Salt Lake Center
Wed 03:19:32 PM 39.1092 -112.5811 30° Northeast 142 163 11,400 48 Level Salt Lake Center
Wed 03:20:34 PM 39.1419 -112.5567 30° Northeast 140 161 11,500 48 Climbing Salt Lake Center
Wed 03:21:36 PM 39.1736 -112.5306 33° Northeast 137 158 11,500 48 Level Salt Lake Center
Wed 03:22:38 PM 39.2050 -112.5031 34° Northeast 136 157 11,600 48 Climbing Salt Lake Center
Wed 03:23:40 PM 39.2372 -112.4753 34° Northeast 138 159 11,600 -23 Level Salt Lake Center
Wed 03:25:00 PM 39.2881 -112.4593 24° Northeast  Level Estimated
Wed 03:26:58 PM 39.3464 -112.3858 20° North 157 181 11,500  Level Salt Lake Center
Wed 03:28:00 PM 39.3783 -112.3525 39° Northeast 147 169 11,500 -968 Level Salt Lake Center
Wed 03:29:02 PM 39.4164 -112.3239 30° Northeast 148 170 9,500  Descending Salt Lake Center
Wed 03:30:04 PM 39.4467 -112.2953 36° Northeast 145 167 11,500 882 Climbing Salt Lake Center
Wed 03:31:18 PM 39.4886 -112.2603 33° Northeast 120 138 11,500 -44 Level Salt Lake Center
Wed 03:32:00 PM 39.5469 -112.3385 20° North  Level FlightAware Approximate
Wed 03:32:20 PM 39.5228 -112.2358 29° Northeast 138 159 11,400  Level Salt Lake Center
Wed 03:33:22 PM 39.5547 -112.2075 34° Northeast 139 160 11,400 48 Level Salt Lake Center
Wed 03:34:24 PM 39.5856 -112.1783 36° Northeast 138 159 11,500 146 Climbing Salt Lake Center
Wed 03:35:25 PM 39.6147 -112.1514 35° Northeast 134 154 11,700 49 Climbing Salt Lake Center
Wed 03:36:27 PM 39.6433 -112.1214 39° Northeast 132 152 11,600  Descending Salt Lake Center
Wed 03:37:29 PM 39.6764 -112.0808 43° Northeast 133 153 11,700  Climbing Salt Lake Center
Wed 03:38:31 PM 39.7044 -112.0478 42° Northeast 135 155 11,600 -49 Descending Salt Lake Center
Wed 03:39:32 PM 39.7344 -112.0167 39° Northeast 137 158 11,600  Level Salt Lake Center
Wed 03:40:34 PM 39.7647 -111.9850 39° Northeast 140 161 11,600  Level Salt Lake Center
Wed 03:41:36 PM 39.7944 -111.9553 38° Northeast 137 158 11,600 -48 Level Salt Lake Center
Wed 03:42:38 PM 39.8242 -111.9261 37° Northeast 136 157 11,500 -293 Descending Salt Lake Center
Wed 03:43:39 PM 39.8561 -111.8939 38° Northeast 144 166 11,000 -488 Descending Salt Lake Center
Wed 03:44:41 PM 39.8933 -111.8572 37° Northeast 140 161 10,500 -527 Descending Salt Lake Center
Wed 03:45:10 PM 39.9072 -111.8533 12° North 140 161 10,200 -387 Descending Salt Lake Center
Wed 03:45:43 PM 39.9256 -111.8281 47° Northeast 143 165 10,100 -109 Descending Salt Lake Center
Wed 03:46:05 PM 39.9344 -111.8275 North 141 162 10,100 -98 Level Salt Lake Center
Wed 03:46:44 PM 39.9544 -111.7981 48° Northeast 134 154 10,000 -295 Descending Salt Lake Center
Wed 03:47:06 PM 39.9628 -111.7981 360° North 136 157 9,800 -387 Descending Salt Lake Center
Wed 03:47:46 PM 39.9853 -111.7650 48° Northeast 142 163 9,600 -197 Descending Salt Lake Center
Wed 03:48:07 PM 39.9944 -111.7622 13° North 141 162 9,600 -194 Level Salt Lake Center
Wed 03:48:48 PM 40.0167 -111.7267 51° Northeast 142 163 9,400 -58 Descending Salt Lake Center
Wed 03:49:50 PM 40.0478 -111.6964 37° Northeast 138 159 9,500 148 Climbing Salt Lake Center
Wed 03:50:09 PM 40.0547 -111.6969 356° North 135 155 9,600 98 Climbing Salt Lake Center
Wed 03:50:51 PM 40.0769 -111.6711 42° Northeast 127 146 9,600  Level Salt Lake Center
Wed 03:51:10 PM 40.0864 -111.6722 355° North 129 148 9,600 -97 Level Salt Lake Center
Wed 03:51:53 PM 40.1172 -111.6531 25° Northeast 138 159 9,500 -98 Descending Salt Lake Center
Wed 03:52:11 PM 40.1225 -111.6597 316° Northwest 135 155 9,500 97 Level Salt Lake Center
Wed 03:52:55 PM 40.1531 -111.6433 22° Northeast 130 150 9,600 98 Climbing Salt Lake Center
Wed 03:53:12 PM 40.1594 -111.6500 321° Northwest 130 150 9,600  Level Salt Lake Center
Wed 03:53:56 PM 40.1900 -111.6394 15° North 130 150 9,600  Level Salt Lake Center
Wed 03:54:13 PM 40.1958 -111.6486 310° West 131 151 9,600 97 Level Salt Lake Center
Wed 03:54:58 PM 40.2264 -111.6344 19° North 129 148 9,700 56 Climbing Salt Lake Center
Wed 03:56:00 PM 40.2625 -111.6350 359° North 129 148 9,700 49 Level Salt Lake Center
Wed 03:57:01 PM 40.2989 -111.6300 North 129 148 9,800 -98 Climbing Salt Lake Center
Wed 03:58:03 PM 40.3306 -111.6039 32° Northeast 132 152 9,500 -484 Descending Salt Lake Center
Wed 03:59:05 PM 40.3617 -111.5686 41° Northeast 135 155 8,800 -585 Descending Salt Lake Center
Wed 04:00:06 PM 40.3925 -111.5400 35° Northeast 135 155 8,300 -244 Descending Salt Lake Center
Wed 04:01:08 PM 40.4181 -111.5150 37° Northeast 135 155 8,300  Level Salt Lake Center

Login

Don't have an account? Register now (free) for customized features, flight alerts, and more!